Calumet, MN (55716)

12:32 AM CDT on September 02, 2015 (GMT -0500)
Calumet, MN | | Change Station
CLOSE
Current Station
Personal Weather Station
Location: Bovey, MN
Elevation: 1381 ft
Nearby Weather Stations

Elev 1381 ft 47.32 °N, 93.28 °W | Updated 13 minutes ago

Partly Cloudy
Partly Cloudy
62.1 °F
Feels Like 62.1 °F
N
0.0
Wind Variable Wind from West

Today
High -- | Low -- °F
--% Chance of Precip.
Yesterday
High -- | Low -- °F
Precip. -- in
6:33 AM 7:51 PM
Waning Gibbous, 83% visible
Pressure 29.95 in
Visibility 10.0 miles
Clouds Clear
Dew Point 58 °F
Humidity 87%
Rainfall 0.00 in
Snow Depth Not available.
UV 0 out of 12
Pollen 9.90 out of 12
Air Quality Not available.
Flu Activity Not available.
METAR KHIB 020453Z AUTO 00000KT 10SM CLR 16/14 A2995 RMK AO2 SLP140 T01560144
Pressure 29.95 in
Visibility 10.0 miles
Clouds Clear
Dew Point 58 °F
Humidity 87%
Rainfall 0.00 in
Snow Depth Not available.
UV 0 out of 12
Pollen 9.90 out of 12
Air Quality Not available.
Flu Activity Not available.
METAR KHIB 020453Z AUTO 00000KT 10SM CLR 16/14 A2995 RMK AO2 SLP140 T01560144

10-Day Weather Forecast

×

Almanac

Astronomy

Sep. 02, 2015 Rise Set
Actual Time
Civil Twilight
Nautical Twilight
Astronomical Twilight
Moon
Length of Visible Light
Length of Day
Tomorrow will be .
, % of the Moon is Illuminated

Today's Extremes

State Highs State Lows

Community

WunderPhotos

Upload Photos

1,851,709 photos uploaded!

WunderBlogs® & News

Nearby

Air Quality

  Air Quality AQ Index Pollutant
Not available.

Snow Depth

Station Depth Elevation

Earthquake Activity

City Distance Mag. Time & Date
Minimum magnitude displayed is 2.5.

Coastal Water Temperatures

Place Temperature

Stations

Nearby Weather Stations

Station Location Temp. Windchill Dew Point Humidity Wind Precip. Elev Updated Type